sensor_id;sensor_type;location;lat;lon;timestamp;pressure;altitude;pressure_sealevel;temperature;humidity
56928;BME280;60850;52.502;13.426;2023-04-01T00:02:00;99256.41;;;10.50;100.00
56928;BME280;60850;52.502;13.426;2023-04-01T00:04:29;99259.00;;;10.51;100.00
56928;BME280;60850;52.502;13.426;2023-04-01T00:06:56;99256.41;;;10.50;100.00
56928;BME280;60850;52.502;13.426;2023-04-01T00:09:23;99255.69;;;10.46;100.00
56928;BME280;60850;52.502;13.426;2023-04-01T00:11:50;99252.19;;;10.45;100.00
56928;BME280;60850;52.502;13.426;2023-04-01T00:14:17;99247.78;;;10.44;100.00
56928;BME280;60850;52.502;13.426;2023-04-01T00:16:44;99249.50;;;10.45;100.00
56928;BME280;60850;52.502;13.426;2023-04-01T00:19:11;99255.63;;;10.48;100.00
56928;BME280;60850;52.502;13.426;2023-04-01T00:21:39;99253.69;;;10.51;100.00
56928;BME280;60850;52.502;13.426;2023-04-01T00:24:07;99256.25;;;10.53;100.00
56928;BME280;60850;52.502;13.426;2023-04-01T00:26:33;99252.72;;;10.52;100.00
56928;BME280;60850;52.502;13.426;2023-04-01T00:29:00;99255.31;;;10.54;100.00
56928;BME280;60850;52.502;13.426;2023-04-01T00:31:28;99258.75;;;10.56;100.00
56928;BME280;60850;52.502;13.426;2023-04-01T00:33:55;99250.75;;;10.56;100.00
56928;BME280;60850;52.502;13.426;2023-04-01T00:36:23;99251.69;;;10.55;100.00
56928;BME280;60850;52.502;13.426;2023-04-01T00:38:51;99248.03;;;10.57;100.00
56928;BME280;60850;52.502;13.426;2023-04-01T00:41:19;99248.91;;;10.58;100.00
56928;BME280;60850;52.502;13.426;2023-04-01T00:43:48;99252.34;;;10.60;100.00
56928;BME280;60850;52.502;13.426;2023-04-01T00:46:15;99251.63;;;10.56;100.00
56928;BME280;60850;52.502;13.426;2023-04-01T00:48:45;99250.75;;;10.56;100.00
56928;BME280;60850;52.502;13.426;2023-04-01T00:51:16;99250.75;;;10.56;100.00
56928;BME280;60850;52.502;13.426;2023-04-01T00:53:45;99251.78;;;10.53;100.00
56928;BME280;60850;52.502;13.426;2023-04-01T00:56:18;99255.41;;;10.52;100.00
56928;BME280;60850;52.502;13.426;2023-04-01T00:58:50;99257.13;;;10.53;100.00
56928;BME280;60850;52.502;13.426;2023-04-01T01:01:18;99257.97;;;10.54;100.00
56928;BME280;60850;52.502;13.426;2023-04-01T01:03:47;99255.41;;;10.52;100.00
56928;BME280;60850;52.502;13.426;2023-04-01T01:06:22;99257.03;;;10.55;100.00
56928;BME280;60850;52.502;13.426;2023-04-01T01:09:02;99258.75;;;10.56;100.00
56928;BME280;60850;52.502;13.426;2023-04-01T01:11:37;99252.56;;;10.55;100.00
56928;BME280;60850;52.502;13.426;2023-04-01T01:14:09;99251.56;;;10.58;100.00
56928;BME280;60850;52.502;13.426;2023-04-01T01:16:43;99255.97;;;10.59;100.00
56928;BME280;60850;52.502;13.426;2023-04-01T01:19:29;99251.31;;;10.62;100.00
56928;BME280;60850;52.502;13.426;2023-04-01T01:22:12;99250.53;;;10.60;100.00
56928;BME280;60850;52.502;13.426;2023-04-01T01:24:56;99255.00;;;10.60;100.00
56928;BME280;60850;52.502;13.426;2023-04-01T01:27:29;99258.63;;;10.59;100.00
56928;BME280;60850;52.502;13.426;2023-04-01T01:30:12;99257.75;;;10.58;100.00
56928;BME280;60850;52.502;13.426;2023-04-01T01:32:59;99257.03;;;10.55;100.00
56928;BME280;60850;52.502;13.426;2023-04-01T01:35:34;99255.63;;;10.48;100.00
56928;BME280;60850;52.502;13.426;2023-04-01T01:38:04;99259.88;;;10.52;100.00
56928;BME280;60850;52.502;13.426;2023-04-01T01:40:33;99269.66;;;10.51;100.00
56928;BME280;60850;52.502;13.426;2023-04-01T01:43:04;99264.34;;;10.51;100.00
56928;BME280;60850;52.502;13.426;2023-04-01T01:45:34;99264.38;;;10.50;100.00
56928;BME280;60850;52.502;13.426;2023-04-01T01:48:04;99263.59;;;10.48;100.00
56928;BME280;60850;52.502;13.426;2023-04-01T01:50:33;99267.13;;;10.48;100.00
56928;BME280;60850;52.502;13.426;2023-04-01T01:53:05;99267.06;;;10.50;100.00
56928;BME280;60850;52.502;13.426;2023-04-01T01:55:34;99266.13;;;10.51;100.00
56928;BME280;60850;52.502;13.426;2023-04-01T01:58:07;99274.91;;;10.53;100.00
56928;BME280;60850;52.502;13.426;2023-04-01T02:00:36;99275.84;;;10.52;100.00
56928;BME280;60850;52.502;13.426;2023-04-01T02:03:04;99275.78;;;10.53;100.00
56928;BME280;60850;52.502;13.426;2023-04-01T02:05:33;99278.34;;;10.55;100.00
56928;BME280;60850;52.502;13.426;2023-04-01T02:08:03;99273.81;;;10.57;100.00
56928;BME280;60850;52.502;13.426;2023-04-01T02:10:36;99272.09;;;10.56;100.00
56928;BME280;60850;52.502;13.426;2023-04-01T02:13:10;99270.22;;;10.58;100.00
56928;BME280;60850;52.502;13.426;2023-04-01T02:15:44;99275.69;;;10.55;100.00
56928;BME280;60850;52.502;13.426;2023-04-01T02:18:14;99279.28;;;10.54;100.00
56928;BME280;60850;52.502;13.426;2023-04-01T02:20:44;99270.53;;;10.52;100.00
56928;BME280;60850;52.502;13.426;2023-04-01T02:23:11;99277.56;;;10.53;100.00
56928;BME280;60850;52.502;13.426;2023-04-01T02:25:40;99273.09;;;10.53;100.00
56928;BME280;60850;52.502;13.426;2023-04-01T02:28:09;99275.69;;;10.55;100.00
56928;BME280;60850;52.502;13.426;2023-04-01T02:30:38;99276.47;;;10.57;100.00
56928;BME280;60850;52.502;13.426;2023-04-01T02:33:06;99277.34;;;10.57;100.00
56928;BME280;60850;52.502;13.426;2023-04-01T02:35:34;99273.81;;;10.57;100.00
56928;BME280;60850;52.502;13.426;2023-04-01T02:38:06;99287.00;;;10.60;100.00
56928;BME280;60850;52.502;13.426;2023-04-01T02:40:45;99275.38;;;10.61;100.00
56928;BME280;60850;52.502;13.426;2023-04-01T02:43:13;99282.44;;;10.62;100.00
56928;BME280;60850;52.502;13.426;2023-04-01T02:45:40;99288.72;;;10.61;100.00
56928;BME280;60850;52.502;13.426;2023-04-01T02:48:07;99283.38;;;10.61;100.00
56928;BME280;60850;52.502;13.426;2023-04-01T02:50:34;99285.97;;;10.62;100.00
56928;BME280;60850;52.502;13.426;2023-04-01T02:53:01;99286.03;;;10.61;100.00
56928;BME280;60850;52.502;13.426;2023-04-01T02:55:30;99293.09;;;10.62;100.00
56928;BME280;60850;52.502;13.426;2023-04-01T02:57:57;99292.41;;;10.58;100.00
56928;BME280;60850;52.502;13.426;2023-04-01T03:00:24;99294.13;;;10.59;100.00
56928;BME280;60850;52.502;13.426;2023-04-01T03:02:52;99303.94;;;10.59;100.00
56928;BME280;60850;52.502;13.426;2023-04-01T03:05:19;99301.19;;;10.60;100.00
56928;BME280;60850;52.502;13.426;2023-04-01T03:07:46;99295.75;;;10.62;100.00
56928;BME280;60850;52.502;13.426;2023-04-01T03:10:13;99301.09;;;10.62;100.00
56928;BME280;60850;52.502;13.426;2023-04-01T03:12:42;99291.38;;;10.61;100.00
56928;BME280;60850;52.502;13.426;2023-04-01T03:15:10;99293.25;;;10.59;100.00
56928;BME280;60850;52.502;13.426;2023-04-01T03:17:37;99294.97;;;10.60;100.00
56928;BME280;60850;52.502;13.426;2023-04-01T03:20:06;99299.53;;;10.58;100.00
56928;BME280;60850;52.502;13.426;2023-04-01T03:22:33;99300.53;;;10.55;100.00
56928;BME280;60850;52.502;13.426;2023-04-01T03:25:01;99297.00;;;10.55;100.00
56928;BME280;60850;52.502;13.426;2023-04-01T03:27:28;99301.41;;;10.56;100.00
56928;BME280;60850;52.502;13.426;2023-04-01T03:29:56;99297.88;;;10.55;100.00
56928;BME280;60850;52.502;13.426;2023-04-01T03:32:23;99301.47;;;10.54;100.00
56928;BME280;60850;52.502;13.426;2023-04-01T03:34:50;99308.59;;;10.54;100.00
56928;BME280;60850;52.502;13.426;2023-04-01T03:37:17;99310.50;;;10.52;100.00
56928;BME280;60850;52.502;13.426;2023-04-01T03:39:44;99311.34;;;10.52;100.00
56928;BME280;60850;52.502;13.426;2023-04-01T03:42:11;99314.16;;;10.49;100.00
56928;BME280;60850;52.502;13.426;2023-04-01T03:44:38;99317.91;;;10.45;100.00
56928;BME280;60850;52.502;13.426;2023-04-01T03:47:06;99319.81;;;10.43;100.00
56928;BME280;60850;52.502;13.426;2023-04-01T03:49:34;99317.16;;;10.43;100.00
56928;BME280;60850;52.502;13.426;2023-04-01T03:52:01;99325.84;;;10.47;100.00
56928;BME280;60850;52.502;13.426;2023-04-01T03:54:29;99321.28;;;10.49;100.00
56928;BME280;60850;52.502;13.426;2023-04-01T03:56:55;99323.81;;;10.52;100.00
56928;BME280;60850;52.502;13.426;2023-04-01T03:59:23;99324.69;;;10.52;100.00
56928;BME280;60850;52.502;13.426;2023-04-01T04:01:50;99322.97;;;10.51;100.00
56928;BME280;60850;52.502;13.426;2023-04-01T04:04:18;99322.97;;;10.51;100.00
56928;BME280;60850;52.502;13.426;2023-04-01T04:06:45;99335.34;;;10.52;100.00
56928;BME280;60850;52.502;13.426;2023-04-01T04:09:12;99334.47;;;10.52;100.00
56928;BME280;60850;52.502;13.426;2023-04-01T04:11:39;99335.25;;;10.54;100.00
56928;BME280;60850;52.502;13.426;2023-04-01T04:14:06;99342.22;;;10.56;100.00
56928;BME280;60850;52.502;13.426;2023-04-01T04:16:34;99345.75;;;10.57;100.00
56928;BME280;60850;52.502;13.426;2023-04-01T04:19:02;99337.91;;;10.54;100.00
56928;BME280;60850;52.502;13.426;2023-04-01T04:21:30;99344.13;;;10.54;100.00
56928;BME280;60850;52.502;13.426;2023-04-01T04:23:58;99344.97;;;10.55;100.00
56928;BME280;60850;52.502;13.426;2023-04-01T04:26:25;99350.94;;;10.60;100.00
56928;BME280;60850;52.502;13.426;2023-04-01T04:28:53;99341.06;;;10.62;100.00
56928;BME280;60850;52.502;13.426;2023-04-01T04:31:21;99345.53;;;10.61;100.00
56928;BME280;60850;52.502;13.426;2023-04-01T04:33:48;99349.06;;;10.62;100.00
56928;BME280;60850;52.502;13.426;2023-04-01T04:36:16;99357.06;;;10.62;100.00
56928;BME280;60850;52.502;13.426;2023-04-01T04:38:45;99353.63;;;10.60;100.00
56928;BME280;60850;52.502;13.426;2023-04-01T04:41:13;99359.81;;;10.60;100.00
56928;BME280;60850;52.502;13.426;2023-04-01T04:43:40;99355.34;;;10.61;100.00
56928;BME280;60850;52.502;13.426;2023-04-01T04:46:08;99357.22;;;10.59;100.00
56928;BME280;60850;52.502;13.426;2023-04-01T04:48:35;99356.28;;;10.60;100.00
56928;BME280;60850;52.502;13.426;2023-04-01T04:51:03;99366.00;;;10.61;100.00
56928;BME280;60850;52.502;13.426;2023-04-01T04:53:30;99367.72;;;10.62;100.00
56928;BME280;60850;52.502;13.426;2023-04-01T04:55:58;99362.56;;;10.59;100.00
56928;BME280;60850;52.502;13.426;2023-04-01T04:58:25;99364.28;;;10.60;100.00
56928;BME280;60850;52.502;13.426;2023-04-01T05:00:52;99362.56;;;10.59;100.00
56928;BME280;60850;52.502;13.426;2023-04-01T05:03:19;99366.84;;;10.61;100.00
56928;BME280;60850;52.502;13.426;2023-04-01T05:05:49;99363.13;;;10.65;100.00
56928;BME280;60850;52.502;13.426;2023-04-01T05:08:17;99357.91;;;10.62;100.00
56928;BME280;60850;52.502;13.426;2023-04-01T05:10:44;99360.66;;;10.61;100.00
56928;BME280;60850;52.502;13.426;2023-04-01T05:13:12;99371.16;;;10.64;100.00
56928;BME280;60850;52.502;13.426;2023-04-01T05:15:39;99368.44;;;10.65;100.00
56928;BME280;60850;52.502;13.426;2023-04-01T05:18:06;99372.66;;;10.69;100.00
56928;BME280;60850;52.502;13.426;2023-04-01T05:20:33;99371.81;;;10.69;100.00
56928;BME280;60850;52.502;13.426;2023-04-01T05:23:00;99380.28;;;10.77;100.00
56928;BME280;60850;52.502;13.426;2023-04-01T05:25:28;99372.28;;;10.77;100.00
56928;BME280;60850;52.502;13.426;2023-04-01T05:27:55;99378.50;;;10.78;100.00
56928;BME280;60850;52.502;13.426;2023-04-01T05:30:23;99382.81;;;10.80;100.00
56928;BME280;60850;52.502;13.426;2023-04-01T05:32:50;99387.22;;;10.81;100.00
56928;BME280;60850;52.502;13.426;2023-04-01T05:35:16;99381.03;;;10.81;100.00
56928;BME280;60850;52.502;13.426;2023-04-01T05:37:44;99373.03;;;10.81;100.00
56928;BME280;60850;52.502;13.426;2023-04-01T05:40:11;99391.59;;;10.82;100.00
56928;BME280;60850;52.502;13.426;2023-04-01T05:42:38;99385.31;;;10.83;100.00
56928;BME280;60850;52.502;13.426;2023-04-01T05:45:06;99391.38;;;10.87;100.00
56928;BME280;60850;52.502;13.426;2023-04-01T05:47:34;99387.69;;;10.89;100.00
56928;BME280;60850;52.502;13.426;2023-04-01T05:50:01;99392.94;;;10.91;100.00
56928;BME280;60850;52.502;13.426;2023-04-01T05:52:28;99393.66;;;10.94;100.00
56928;BME280;60850;52.502;13.426;2023-04-01T05:54:55;99398.94;;;10.96;100.00
56928;BME280;60850;52.502;13.426;2023-04-01T05:57:22;99396.25;;;10.96;100.00
56928;BME280;60850;52.502;13.426;2023-04-01T05:59:49;99405.75;;;11.02;100.00
56928;BME280;60850;52.502;13.426;2023-04-01T06:02:17;99403.75;;;11.07;100.00
56928;BME280;60850;52.502;13.426;2023-04-01T06:04:46;99413.28;;;11.11;100.00
56928;BME280;60850;52.502;13.426;2023-04-01T06:07:15;99415.75;;;11.15;100.00
56928;BME280;60850;52.502;13.426;2023-04-01T06:09:43;99416.44;;;11.19;100.00
56928;BME280;60850;52.502;13.426;2023-04-01T06:12:37;99420.69;;;11.23;100.00
56928;BME280;60850;52.502;13.426;2023-04-01T06:15:18;99421.38;;;11.26;100.00
56928;BME280;60850;52.502;13.426;2023-04-01T06:17:56;99421.16;;;11.31;100.00
56928;BME280;60850;52.502;13.426;2023-04-01T06:20:35;99428.13;;;11.34;100.00
56928;BME280;60850;52.502;13.426;2023-04-01T06:23:24;99420.38;;;11.29;100.00
56928;BME280;60850;52.502;13.426;2023-04-01T06:26:11;99424.38;;;11.38;100.00
56928;BME280;60850;52.502;13.426;2023-04-01T06:28:54;99424.16;;;11.42;100.00
56928;BME280;60850;52.502;13.426;2023-04-01T06:31:51;99432.88;;;11.46;100.00
56928;BME280;60850;52.502;13.426;2023-04-01T06:34:38;99440.78;;;11.47;100.00
56928;BME280;60850;52.502;13.426;2023-04-01T06:37:22;99432.94;;;11.44;100.00
56928;BME280;60850;52.502;13.426;2023-04-01T06:40:06;99439.31;;;11.42;100.00
56928;BME280;60850;52.502;13.426;2023-04-01T06:42:48;99434.13;;;11.39;100.00
56928;BME280;60850;52.502;13.426;2023-04-01T06:45:32;99433.97;;;11.42;100.00
56928;BME280;60850;52.502;13.426;2023-04-01T06:48:13;99452.56;;;11.43;100.00
56928;BME280;60850;52.502;13.426;2023-04-01T06:50:52;99447.31;;;11.42;100.00
56928;BME280;60850;52.502;13.426;2023-04-01T06:53:28;99443.84;;;11.40;100.00
56928;BME280;60850;52.502;13.426;2023-04-01T06:56:03;99443.16;;;11.36;100.00
56928;BME280;60850;52.502;13.426;2023-04-01T06:58:36;99444.97;;;11.36;100.00
56928;BME280;60850;52.502;13.426;2023-04-01T07:01:07;99440.47;;;11.36;100.00
56928;BME280;60850;52.502;13.426;2023-04-01T07:03:37;99455.47;;;11.39;100.00
56928;BME280;60850;52.502;13.426;2023-04-01T07:06:10;99445.81;;;11.36;100.00
56928;BME280;60850;52.502;13.426;2023-04-01T07:08:41;99451.84;;;11.40;100.00
56928;BME280;60850;52.502;13.426;2023-04-01T07:11:22;99453.66;;;11.39;100.00
56928;BME280;60850;52.502;13.426;2023-04-01T07:13:53;99452.72;;;11.40;100.00
56928;BME280;60850;52.502;13.426;2023-04-01T07:16:27;99458.69;;;11.45;100.00
56928;BME280;60850;52.502;13.426;2023-04-01T07:18:58;99459.34;;;11.50;100.00
56928;BME280;60850;52.502;13.426;2023-04-01T07:21:30;99456.41;;;11.55;100.00
56928;BME280;60850;52.502;13.426;2023-04-01T07:24:05;99456.19;;;11.60;100.00
56928;BME280;60850;52.502;13.426;2023-04-01T07:26:32;99458.69;;;11.63;100.00
56928;BME280;60850;52.502;13.426;2023-04-01T07:28:59;99467.50;;;11.65;100.00
56928;BME280;60850;52.502;13.426;2023-04-01T07:31:39;99462.00;;;11.68;100.00
56928;BME280;60850;52.502;13.426;2023-04-01T07:34:16;99468.09;;;11.70;100.00
56928;BME280;60850;52.502;13.426;2023-04-01T07:36:47;99471.41;;;11.75;100.00
56928;BME280;60850;52.502;13.426;2023-04-01T07:39:26;99476.16;;;11.87;100.00
56928;BME280;60850;52.502;13.426;2023-04-01T07:42:02;99459.19;;;12.05;100.00
56928;BME280;60850;52.502;13.426;2023-04-01T07:44:36;99467.00;;;12.08;100.00
56928;BME280;60850;52.502;13.426;2023-04-01T07:47:20;99466.25;;;12.06;100.00
56928;BME280;60850;52.502;13.426;2023-04-01T07:49:58;99476.38;;;12.00;100.00
56928;BME280;60850;52.502;13.426;2023-04-01T07:52:33;99469.38;;;11.97;100.00
56928;BME280;60850;52.502;13.426;2023-04-01T07:55:07;99474.03;;;11.94;100.00
56928;BME280;60850;52.502;13.426;2023-04-01T07:57:43;99476.53;;;11.97;100.00
56928;BME280;60850;52.502;13.426;2023-04-01T08:00:19;99482.41;;;12.03;100.00
56928;BME280;60850;52.502;13.426;2023-04-01T08:03:00;99483.72;;;12.12;100.00
56928;BME280;60850;52.502;13.426;2023-04-01T08:05:37;99482.53;;;12.18;100.00
56928;BME280;60850;52.502;13.426;2023-04-01T08:08:13;99480.09;;;12.30;100.00
56928;BME280;60850;52.502;13.426;2023-04-01T08:10:49;99482.19;;;12.41;100.00
56928;BME280;60850;52.502;13.426;2023-04-01T08:13:25;99488.53;;;12.56;100.00
56928;BME280;60850;52.502;13.426;2023-04-01T08:16:06;99486.81;;;12.71;100.00
56928;BME280;60850;52.502;13.426;2023-04-01T08:18:41;99490.88;;;12.78;100.00
56928;BME280;60850;52.502;13.426;2023-04-01T08:21:16;99490.53;;;12.84;100.00
56928;BME280;60850;52.502;13.426;2023-04-01T08:23:48;99491.81;;;12.92;100.00
56928;BME280;60850;52.502;13.426;2023-04-01T08:26:24;99492.41;;;12.82;100.00
56928;BME280;60850;52.502;13.426;2023-04-01T08:28:57;99504.38;;;12.75;100.00
56928;BME280;60850;52.502;13.426;2023-04-01T08:31:30;99507.66;;;12.64;100.00
56928;BME280;60850;52.502;13.426;2023-04-01T08:34:00;99518.63;;;12.26;100.00
56928;BME280;60850;52.502;13.426;2023-04-01T08:36:30;99523.44;;;11.85;100.00
56928;BME280;60850;52.502;13.426;2023-04-01T08:39:03;99519.84;;;11.50;100.00
56928;BME280;60850;52.502;13.426;2023-04-01T08:41:53;99517.88;;;11.36;100.00
56928;BME280;60850;52.502;13.426;2023-04-01T08:56:35;99532.69;;;11.78;100.00
56928;BME280;60850;52.502;13.426;2023-04-01T08:59:21;99532.22;;;12.04;100.00
56928;BME280;60850;52.502;13.426;2023-04-01T09:02:15;99533.75;;;12.26;100.00
56928;BME280;60850;52.502;13.426;2023-04-01T09:08:11;99529.16;;;12.62;100.00
56928;BME280;60850;52.502;13.426;2023-04-01T09:11:05;99538.59;;;12.52;100.00
56928;BME280;60850;52.502;13.426;2023-04-01T09:13:47;99541.91;;;12.57;100.00
56928;BME280;60850;52.502;13.426;2023-04-01T09:16:29;99538.81;;;12.81;100.00
56928;BME280;60850;52.502;13.426;2023-04-01T09:19:17;99535.31;;;12.96;100.00
56928;BME280;60850;52.502;13.426;2023-04-01T09:21:58;99553.66;;;12.71;100.00
56928;BME280;60850;52.502;13.426;2023-04-01T09:24:57;99565.50;;;12.49;100.00
56928;BME280;60850;52.502;13.426;2023-04-01T09:27:29;99558.69;;;12.09;100.00
56928;BME280;60850;52.502;13.426;2023-04-01T09:36:34;99570.56;;;11.50;100.00
56928;BME280;60850;52.502;13.426;2023-04-01T09:39:18;99571.94;;;11.40;100.00
56928;BME280;60850;52.502;13.426;2023-04-01T09:42:02;99584.88;;;11.30;100.00
56928;BME280;60850;52.502;13.426;2023-04-01T09:44:35;99581.13;;;11.15;100.00
56928;BME280;60850;52.502;13.426;2023-04-01T09:47:21;99586.47;;;11.15;100.00
56928;BME280;60850;52.502;13.426;2023-04-01T09:50:13;99584.00;;;11.11;100.00
56928;BME280;60850;52.502;13.426;2023-04-01T09:52:48;99587.03;;;11.22;100.00
56928;BME280;60850;52.502;13.426;2023-04-01T09:55:37;99593.94;;;11.26;100.00
56928;BME280;60850;52.502;13.426;2023-04-01T10:08:29;99603.59;;;10.72;100.00
56928;BME280;60850;52.502;13.426;2023-04-01T10:11:20;99607.75;;;10.59;100.00
56928;BME280;60850;52.502;13.426;2023-04-01T10:14:10;99612.59;;;10.49;100.00
56928;BME280;60850;52.502;13.426;2023-04-01T10:17:00;99622.25;;;10.31;100.00
56928;BME280;60850;52.502;13.426;2023-04-01T10:19:53;99621.50;;;10.28;100.00
56928;BME280;60850;52.502;13.426;2023-04-01T10:22:46;99617.28;;;10.24;100.00
56928;BME280;60850;52.502;13.426;2023-04-01T10:25:52;99616.53;;;10.40;100.00
56928;BME280;60850;52.502;13.426;2023-04-01T10:28:54;99617.28;;;10.24;100.00
56928;BME280;60850;52.502;13.426;2023-04-01T10:31:44;99619.47;;;10.12;100.00
56928;BME280;60850;52.502;13.426;2023-04-01T10:34:36;99619.56;;;10.11;100.00
56928;BME280;60850;52.502;13.426;2023-04-01T10:37:15;99626.22;;;10.01;100.00
56928;BME280;60850;52.502;13.426;2023-04-01T10:40:19;99626.53;;;10.13;100.00
56928;BME280;60850;52.502;13.426;2023-04-01T10:43:18;99630.97;;;10.35;100.00
56928;BME280;60850;52.502;13.426;2023-04-01T10:46:21;99634.47;;;10.37;100.00
56928;BME280;60850;52.502;13.426;2023-04-01T10:52:17;99632.06;;;10.51;100.00
56928;BME280;60850;52.502;13.426;2023-04-01T10:54:58;99631.78;;;10.57;100.00
56928;BME280;60850;52.502;13.426;2023-04-01T10:57:50;99641.88;;;10.69;100.00
56928;BME280;60850;52.502;13.426;2023-04-01T11:03:53;99634.34;;;10.18;100.00
56928;BME280;60850;52.502;13.426;2023-04-01T11:07:07;99641.44;;;9.97;100.00
56928;BME280;60850;52.502;13.426;2023-04-01T11:13:02;99654.72;;;10.19;100.00
56928;BME280;60850;52.502;13.426;2023-04-01T11:15:58;99662.06;;;9.92;100.00
56928;BME280;60850;52.502;13.426;2023-04-01T11:19:04;99657.34;;;9.99;100.00
56928;BME280;60850;52.502;13.426;2023-04-01T11:21:59;99655.91;;;10.12;100.00
56928;BME280;60850;52.502;13.426;2023-04-01T11:27:42;99661.31;;;10.10;100.00
56928;BME280;60850;52.502;13.426;2023-04-01T11:30:22;99659.66;;;10.08;100.00
56928;BME280;60850;52.502;13.426;2023-04-01T11:33:00;99672.19;;;10.26;100.00
56928;BME280;60850;52.502;13.426;2023-04-01T11:35:42;99666.47;;;10.35;100.00
56928;BME280;60850;52.502;13.426;2023-04-01T11:38:22;99676.81;;;10.23;100.00
56928;BME280;60850;52.502;13.426;2023-04-01T11:40:58;99674.75;;;10.29;100.00
56928;BME280;60850;52.502;13.426;2023-04-01T11:43:32;99681.06;;;10.27;100.00
56928;BME280;60850;52.502;13.426;2023-04-01T11:46:07;99696.31;;;10.23;100.00
56928;BME280;60850;52.502;13.426;2023-04-01T11:48:53;99686.53;;;10.02;100.00
56928;BME280;60850;52.502;13.426;2023-04-01T11:51:42;99694.13;;;10.11;100.00
56928;BME280;60850;52.502;13.426;2023-04-01T11:54:26;99696.66;;;10.14;100.00
56928;BME280;60850;52.502;13.426;2023-04-01T11:57:04;99713.00;;;10.05;100.00
56928;BME280;60850;52.502;13.426;2023-04-01T11:59:52;99712.94;;;9.84;100.00
56928;BME280;60850;52.502;13.426;2023-04-01T12:02:27;99712.19;;;9.59;100.00
56928;BME280;60850;52.502;13.426;2023-04-01T12:05:23;99714.09;;;9.55;100.00
56928;BME280;60850;52.502;13.426;2023-04-01T12:08:01;99734.66;;;9.52;100.00
56928;BME280;60850;52.502;13.426;2023-04-01T12:10:38;99723.88;;;9.31;100.00
56928;BME280;60850;52.502;13.426;2023-04-01T12:13:14;99731.06;;;9.53;100.00
56928;BME280;60850;52.502;13.426;2023-04-01T12:15:55;99735.47;;;9.30;100.00
56928;BME280;60850;52.502;13.426;2023-04-01T12:18:31;99728.66;;;9.22;100.00
56928;BME280;60850;52.502;13.426;2023-04-01T12:21:09;99737.06;;;9.34;100.00
56928;BME280;60850;52.502;13.426;2023-04-01T12:24:03;99732.19;;;9.69;100.00
56928;BME280;60850;52.502;13.426;2023-04-01T12:26:47;99732.91;;;9.96;100.00
56928;BME280;60850;52.502;13.426;2023-04-01T12:29:37;99740.63;;;9.80;100.00
56928;BME280;60850;52.502;13.426;2023-04-01T12:32:17;99742.69;;;9.72;100.00
56928;BME280;60850;52.502;13.426;2023-04-01T12:35:04;99751.69;;;9.91;100.00
56928;BME280;60850;52.502;13.426;2023-04-01T12:37:47;99749.03;;;9.91;100.00
56928;BME280;60850;52.502;13.426;2023-04-01T12:40:23;99752.88;;;9.84;100.00
56928;BME280;60850;52.502;13.426;2023-04-01T12:43:08;99752.25;;;9.78;100.00
56928;BME280;60850;52.502;13.426;2023-04-01T12:45:45;99758.13;;;9.41;100.00
56928;BME280;60850;52.502;13.426;2023-04-01T12:48:36;99752.56;;;9.23;100.00
56928;BME280;60850;52.502;13.426;2023-04-01T12:51:23;99768.91;;;9.13;100.00
56928;BME280;60850;52.502;13.426;2023-04-01T12:54:11;99772.00;;;9.49;100.00
56928;BME280;60850;52.502;13.426;2023-04-01T12:56:52;99769.44;;;9.69;100.00
56928;BME280;60850;52.502;13.426;2023-04-01T13:02:40;99767.91;;;9.85;100.00
56928;BME280;60850;52.502;13.426;2023-04-01T13:05:25;99780.06;;;9.93;100.00
56928;BME280;60850;52.502;13.426;2023-04-01T13:08:27;99782.88;;;9.66;100.00
56928;BME280;60850;52.502;13.426;2023-04-01T13:11:08;99788.09;;;9.46;100.00
56928;BME280;60850;52.502;13.426;2023-04-01T13:13:48;99786.09;;;9.51;100.00
56928;BME280;60850;52.502;13.426;2023-04-01T13:16:21;99796.88;;;9.48;100.00
56928;BME280;60850;52.502;13.426;2023-04-01T13:18:57;99796.88;;;9.23;100.00
56928;BME280;60850;52.502;13.426;2023-04-01T13:21:33;99799.44;;;9.01;100.00
56928;BME280;60850;52.502;13.426;2023-04-01T13:24:11;99805.69;;;8.75;100.00
56928;BME280;60850;52.502;13.426;2023-04-01T13:26:53;99803.03;;;8.73;100.00
56928;BME280;60850;52.502;13.426;2023-04-01T13:29:27;99803.03;;;8.73;100.00
56928;BME280;60850;52.502;13.426;2023-04-01T13:32:09;99811.91;;;8.74;100.00
56928;BME280;60850;52.502;13.426;2023-04-01T13:34:51;99820.97;;;8.93;100.00
56928;BME280;60850;52.502;13.426;2023-04-01T13:37:31;99826.75;;;9.06;100.00
56928;BME280;60850;52.502;13.426;2023-04-01T13:40:21;99828.75;;;8.73;100.00
56928;BME280;60850;52.502;13.426;2023-04-01T13:42:55;99823.16;;;8.82;100.00
56928;BME280;60850;52.502;13.426;2023-04-01T13:45:27;99820.16;;;8.91;100.00
56928;BME280;60850;52.502;13.426;2023-04-01T13:48:23;99818.91;;;9.01;100.00
56928;BME280;60850;52.502;13.426;2023-04-01T13:51:04;99827.53;;;9.08;100.00
56928;BME280;60850;52.502;13.426;2023-04-01T13:56:34;99828.19;;;8.90;100.00
56928;BME280;60850;52.502;13.426;2023-04-01T13:59:28;99838.97;;;8.85;100.00
56928;BME280;60850;52.502;13.426;2023-04-01T14:02:19;99839.63;;;8.92;100.00
56928;BME280;60850;52.502;13.426;2023-04-01T14:05:00;99843.13;;;8.67;100.00
56928;BME280;60850;52.502;13.426;2023-04-01T14:07:50;99845.69;;;8.70;100.00
56928;BME280;60850;52.502;13.426;2023-04-01T14:10:26;99845.69;;;8.70;100.00
56928;BME280;60850;52.502;13.426;2023-04-01T14:13:01;99859.16;;;8.91;100.00
56928;BME280;60850;52.502;13.426;2023-04-01T14:19:00;99852.59;;;9.02;100.00
56928;BME280;60850;52.502;13.426;2023-04-01T14:21:36;99878.50;;;8.96;100.00